This is the latest recevied weather packets stored in our database for station/object EA2BK-11. If no packets are shown the sender has not sent any weather packets the latest 10 day(s).
| Time | Temp. | Humidity | Pressure | Rain* | Wind** | Luminosity | Snow |
|---|---|---|---|---|---|---|---|
| 1777620885 | 17.22° C | 63% | 951 hPa | - | - | - | - |
| 1777619977 | 17.78° C | 63% | 951 hPa | - | - | - | - |
| 1777619072 | 17.78° C | 63% | 951 hPa | - | - | - | - |
| 1777618166 | 17.22° C | 66% | 951 hPa | - | - | - | - |
| 1777617261 | 16.67° C | 68% | 951 hPa | - | - | - | - |
| 1777616356 | 16.11° C | 71% | 951 hPa | - | - | - | - |
| 1777615451 | 15.56° C | 71% | 950 hPa | - | - | - | - |
| 1777614546 | 15.56° C | 72% | 950 hPa | - | - | - | - |
| 1777613641 | 15.56° C | 72% | 950 hPa | - | - | - | - |
| 1777612735 | 15° C | 72% | 950 hPa | - | - | - | - |
| 1777611830 | 15° C | 70% | 950 hPa | - | - | - | - |
| 1777610925 | 15.56° C | 69% | 950 hPa | - | - | - | - |
| 1777610020 | 15° C | 69% | 950 hPa | - | - | - | - |
| 1777609115 | 15° C | 69% | 950 hPa | - | - | - | - |
| 1777608210 | 15° C | 69% | 950 hPa | - | - | - | - |
| 1777607304 | 15° C | 68% | 950 hPa | - | - | - | - |
| 1777606398 | 15° C | 67% | 950 hPa | - | - | - | - |
| 1777605493 | 15° C | 66% | 950 hPa | - | - | - | - |
| 1777604588 | 15.56° C | 65% | 949 hPa | - | - | - | - |
| 1777603683 | 15.56° C | 64% | 949 hPa | - | - | - | - |
| 1777602777 | 16.11° C | 64% | 949 hPa | - | - | - | - |
| 1777601872 | 16.11° C | 62% | 949 hPa | - | - | - | - |
| 1777600967 | 16.67° C | 61% | 949 hPa | - | - | - | - |
| 1777600062 | 16.67° C | 60% | 949 hPa | - | - | - | - |
| 1777599157 | 16.67° C | 59% | 949 hPa | - | - | - | - |
* Rain since midnight (hover to see other rain measurements)
** Current wind speed in m/s (hover to see current wind gust speed)